sensor_id;sensor_type;location;lat;lon;timestamp;pressure;altitude;pressure_sealevel;temperature;humidity
21401;BME280;18038;50.166;18.908;2024-03-06T00:01:38;98138.16;;;2.18;100.00
21401;BME280;18038;50.166;18.908;2024-03-06T00:04:46;98135.53;;;2.18;100.00
21401;BME280;18038;50.166;18.908;2024-03-06T00:07:54;98138.03;;;2.20;100.00
21401;BME280;18038;50.166;18.908;2024-03-06T00:11:01;98141.50;;;2.20;100.00
21401;BME280;18038;50.166;18.908;2024-03-06T00:14:13;98139.44;;;2.24;100.00
21401;BME280;18038;50.166;18.908;2024-03-06T00:17:20;98144.56;;;2.25;100.00
21401;BME280;18038;50.166;18.908;2024-03-06T00:20:28;98138.34;;;2.26;100.00
21401;BME280;18038;50.166;18.908;2024-03-06T00:23:35;98149.66;;;2.17;99.95
21401;BME280;18038;50.166;18.908;2024-03-06T00:26:45;98147.91;;;2.06;100.00
21401;BME280;18038;50.166;18.908;2024-03-06T00:29:55;98152.91;;;2.09;100.00
21401;BME280;18038;50.166;18.908;2024-03-06T00:33:03;98155.28;;;2.13;99.94
21401;BME280;18038;50.166;18.908;2024-03-06T00:36:11;98151.69;;;2.14;99.57
21401;BME280;18038;50.166;18.908;2024-03-06T00:39:19;98157.19;;;2.10;98.96
21401;BME280;18038;50.166;18.908;2024-03-06T00:42:26;98158.03;;;2.11;98.81
21401;BME280;18038;50.166;18.908;2024-03-06T00:45:37;98161.75;;;2.08;97.99
21401;BME280;18038;50.166;18.908;2024-03-06T00:48:44;98155.06;;;2.04;97.77
21401;BME280;18038;50.166;18.908;2024-03-06T00:51:52;98161.94;;;1.96;97.69
21401;BME280;18038;50.166;18.908;2024-03-06T00:54:59;98155.72;;;1.97;97.53
21401;BME280;18038;50.166;18.908;2024-03-06T00:58:07;98157.41;;;1.98;97.48
21401;BME280;18038;50.166;18.908;2024-03-06T01:01:18;98153.59;;;1.91;96.94
21401;BME280;18038;50.166;18.908;2024-03-06T01:04:26;98154.94;;;1.85;97.13
21401;BME280;18038;50.166;18.908;2024-03-06T01:07:33;98148.84;;;1.84;97.53
21401;BME280;18038;50.166;18.908;2024-03-06T01:10:42;98153.41;;;1.82;97.11
21401;BME280;18038;50.166;18.908;2024-03-06T01:13:49;98149.03;;;1.72;97.31
21401;BME280;18038;50.166;18.908;2024-03-06T01:16:59;98153.31;;;1.73;97.05
21401;BME280;18038;50.166;18.908;2024-03-06T01:20:08;98160.59;;;1.69;97.14
21401;BME280;18038;50.166;18.908;2024-03-06T01:23:17;98160.47;;;1.71;97.05
21401;BME280;18038;50.166;18.908;2024-03-06T01:26:24;98165.41;;;1.64;96.84
21401;BME280;18038;50.166;18.908;2024-03-06T01:29:32;98163.84;;;1.61;96.96
21401;BME280;18038;50.166;18.908;2024-03-06T01:32:42;98171.25;;;1.56;96.39
21401;BME280;18038;50.166;18.908;2024-03-06T01:35:51;98171.41;;;1.43;96.75
21401;BME280;18038;50.166;18.908;2024-03-06T01:38:58;98175.94;;;1.41;97.34
21401;BME280;18038;50.166;18.908;2024-03-06T01:42:07;98180.50;;;1.39;96.82
21401;BME280;18038;50.166;18.908;2024-03-06T01:45:14;98183.13;;;1.39;96.96
21401;BME280;18038;50.166;18.908;2024-03-06T01:48:28;98182.97;;;1.41;97.16
21401;BME280;18038;50.166;18.908;2024-03-06T01:51:38;98177.00;;;1.39;97.08
21401;BME280;18038;50.166;18.908;2024-03-06T01:54:48;98178.94;;;1.26;96.52
21401;BME280;18038;50.166;18.908;2024-03-06T01:57:57;98177.09;;;1.05;96.91
21401;BME280;18038;50.166;18.908;2024-03-06T02:01:05;98181.38;;;0.95;97.68
21401;BME280;18038;50.166;18.908;2024-03-06T02:04:16;98180.53;;;0.94;98.35
21401;BME280;18038;50.166;18.908;2024-03-06T02:07:24;98174.19;;;0.86;98.25
21401;BME280;18038;50.166;18.908;2024-03-06T02:10:32;98178.63;;;0.74;98.83
21401;BME280;18038;50.166;18.908;2024-03-06T02:13:42;98177.19;;;0.70;98.72
21401;BME280;18038;50.166;18.908;2024-03-06T02:16:49;98179.44;;;0.63;98.58
21401;BME280;18038;50.166;18.908;2024-03-06T02:20:01;98179.66;;;0.49;99.09
21401;BME280;18038;50.166;18.908;2024-03-06T02:23:12;98177.50;;;0.31;99.04
21401;BME280;18038;50.166;18.908;2024-03-06T02:26:22;98183.31;;;0.35;99.87
21401;BME280;18038;50.166;18.908;2024-03-06T02:29:30;98185.84;;;0.37;100.00
21401;BME280;18038;50.166;18.908;2024-03-06T02:32:38;98187.13;;;0.31;99.76
21401;BME280;18038;50.166;18.908;2024-03-06T02:35:46;98177.81;;;0.16;99.26
21401;BME280;18038;50.166;18.908;2024-03-06T02:38:57;98174.47;;;0.14;100.00
21401;BME280;18038;50.166;18.908;2024-03-06T02:42:04;98173.16;;;0.19;100.00
21401;BME280;18038;50.166;18.908;2024-03-06T02:45:12;98177.94;;;0.25;100.00
21401;BME280;18038;50.166;18.908;2024-03-06T02:48:20;98174.22;;;0.17;99.93
21401;BME280;18038;50.166;18.908;2024-03-06T02:51:28;98177.31;;;0.10;100.00
21401;BME280;18038;50.166;18.908;2024-03-06T02:54:41;98183.88;;;0.16;100.00
21401;BME280;18038;50.166;18.908;2024-03-06T02:57:49;98185.28;;;0.09;99.68
21401;BME280;18038;50.166;18.908;2024-03-06T03:00:56;98185.75;;;0.03;100.00
21401;BME280;18038;50.166;18.908;2024-03-06T03:04:04;98185.00;;;0.01;99.87
21401;BME280;18038;50.166;18.908;2024-03-06T03:07:12;98180.97;;;-0.03;99.72
21401;BME280;18038;50.166;18.908;2024-03-06T03:10:22;98184.41;;;-0.03;100.00
21401;BME280;18038;50.166;18.908;2024-03-06T03:13:30;98190.53;;;-0.15;99.81
21401;BME280;18038;50.166;18.908;2024-03-06T03:16:38;98200.75;;;-0.23;100.00
21401;BME280;18038;50.166;18.908;2024-03-06T03:19:46;98202.69;;;-0.14;100.00
21401;BME280;18038;50.166;18.908;2024-03-06T03:22:54;98199.22;;;-0.15;100.00
21401;BME280;18038;50.166;18.908;2024-03-06T03:26:04;98202.47;;;-0.11;100.00
21401;BME280;18038;50.166;18.908;2024-03-06T03:29:15;98204.81;;;-0.19;100.00
21401;BME280;18038;50.166;18.908;2024-03-06T03:32:23;98205.97;;;-0.23;99.91
21401;BME280;18038;50.166;18.908;2024-03-06T03:35:31;98204.03;;;-0.33;100.00
21401;BME280;18038;50.166;18.908;2024-03-06T03:38:39;98199.19;;;-0.26;100.00
21401;BME280;18038;50.166;18.908;2024-03-06T03:41:50;98203.41;;;-0.36;100.00
21401;BME280;18038;50.166;18.908;2024-03-06T03:44:57;98205.69;;;-0.32;100.00
21401;BME280;18038;50.166;18.908;2024-03-06T03:48:08;98207.59;;;-0.34;100.00
21401;BME280;18038;50.166;18.908;2024-03-06T03:51:16;98201.97;;;-0.40;100.00
21401;BME280;18038;50.166;18.908;2024-03-06T03:54:24;98206.19;;;-0.50;99.78
21401;BME280;18038;50.166;18.908;2024-03-06T03:57:34;98206.28;;;-0.52;100.00
21401;BME280;18038;50.166;18.908;2024-03-06T04:00:42;98202.84;;;-0.52;100.00
21401;BME280;18038;50.166;18.908;2024-03-06T04:03:50;98203.34;;;-0.47;100.00
21401;BME280;18038;50.166;18.908;2024-03-06T04:06:58;98207.22;;;-0.40;100.00
21401;BME280;18038;50.166;18.908;2024-03-06T04:10:06;98208.88;;;-0.39;99.63
21401;BME280;18038;50.166;18.908;2024-03-06T04:13:19;98204.81;;;-0.43;99.28
21401;BME280;18038;50.166;18.908;2024-03-06T04:16:26;98208.59;;;-0.47;98.99
21401;BME280;18038;50.166;18.908;2024-03-06T04:19:37;98207.34;;;-0.55;99.78
21401;BME280;18038;50.166;18.908;2024-03-06T04:22:45;98209.34;;;-0.58;99.98
21401;BME280;18038;50.166;18.908;2024-03-06T04:25:55;98206.84;;;-0.60;100.00
21401;BME280;18038;50.166;18.908;2024-03-06T04:29:05;98209.56;;;-0.61;100.00
21401;BME280;18038;50.166;18.908;2024-03-06T04:32:13;98212.50;;;-0.66;100.00
21401;BME280;18038;50.166;18.908;2024-03-06T04:35:21;98218.41;;;-0.75;100.00
21401;BME280;18038;50.166;18.908;2024-03-06T04:38:29;98218.53;;;-1.15;100.00
21401;BME280;18038;50.166;18.908;2024-03-06T04:41:36;98210.22;;;-1.20;100.00
21401;BME280;18038;50.166;18.908;2024-03-06T04:44:48;98213.75;;;-1.34;100.00
21401;BME280;18038;50.166;18.908;2024-03-06T04:47:58;98219.09;;;-1.35;100.00
21401;BME280;18038;50.166;18.908;2024-03-06T04:51:06;98216.78;;;-1.27;100.00
21401;BME280;18038;50.166;18.908;2024-03-06T04:54:14;98215.09;;;-1.28;100.00
21401;BME280;18038;50.166;18.908;2024-03-06T04:57:22;98221.19;;;-1.40;100.00
21401;BME280;18038;50.166;18.908;2024-03-06T05:00:33;98225.03;;;-1.46;100.00
21401;BME280;18038;50.166;18.908;2024-03-06T05:03:41;98228.28;;;-1.43;100.00
21401;BME280;18038;50.166;18.908;2024-03-06T05:07:03;98231.50;;;-1.39;100.00
21401;BME280;18038;50.166;18.908;2024-03-06T05:10:25;98241.22;;;-1.28;100.00
21401;BME280;18038;50.166;18.908;2024-03-06T05:13:46;98235.91;;;-1.14;100.00
21401;BME280;18038;50.166;18.908;2024-03-06T05:17:11;98238.50;;;-0.88;100.00
21401;BME280;18038;50.166;18.908;2024-03-06T05:20:32;98234.09;;;-0.75;100.00
21401;BME280;18038;50.166;18.908;2024-03-06T05:23:54;98237.66;;;-0.76;100.00
21401;BME280;18038;50.166;18.908;2024-03-06T05:27:15;98237.53;;;-0.62;100.00
21401;BME280;18038;50.166;18.908;2024-03-06T05:30:37;98246.31;;;-0.63;100.00
21401;BME280;18038;50.166;18.908;2024-03-06T05:34:00;98247.00;;;-0.48;100.00
21401;BME280;18038;50.166;18.908;2024-03-06T05:37:23;98251.78;;;-0.42;100.00
21401;BME280;18038;50.166;18.908;2024-03-06T05:40:46;98250.19;;;-0.32;100.00
21401;BME280;18038;50.166;18.908;2024-03-06T05:44:08;98255.53;;;-0.33;100.00
21401;BME280;18038;50.166;18.908;2024-03-06T05:47:29;98257.59;;;-0.25;100.00
21401;BME280;18038;50.166;18.908;2024-03-06T05:50:54;98254.47;;;-0.30;100.00
21401;BME280;18038;50.166;18.908;2024-03-06T05:54:15;98269.13;;;-0.28;100.00
21401;BME280;18038;50.166;18.908;2024-03-06T05:57:37;98275.16;;;-0.15;100.00
21401;BME280;18038;50.166;18.908;2024-03-06T06:01:03;98274.66;;;-0.20;100.00
21401;BME280;18038;50.166;18.908;2024-03-06T06:04:12;98272.69;;;-0.29;100.00
21401;BME280;18038;50.166;18.908;2024-03-06T06:07:23;98280.22;;;-0.24;100.00
21401;BME280;18038;50.166;18.908;2024-03-06T06:10:31;98284.19;;;-0.19;100.00
21401;BME280;18038;50.166;18.908;2024-03-06T06:13:39;98289.66;;;-0.22;100.00
21401;BME280;18038;50.166;18.908;2024-03-06T06:16:47;98286.34;;;-0.13;100.00
21401;BME280;18038;50.166;18.908;2024-03-06T06:19:55;98281.19;;;-0.01;100.00
21401;BME280;18038;50.166;18.908;2024-03-06T06:23:06;98290.94;;;-0.03;100.00
21401;BME280;18038;50.166;18.908;2024-03-06T06:26:14;98287.88;;;0.03;100.00
21401;BME280;18038;50.166;18.908;2024-03-06T06:29:22;98284.81;;;0.09;100.00
21401;BME280;18038;50.166;18.908;2024-03-06T06:32:29;98285.31;;;0.14;100.00
21401;BME280;18038;50.166;18.908;2024-03-06T06:35:38;98294.72;;;0.17;100.00
21401;BME280;18038;50.166;18.908;2024-03-06T06:38:48;98265.63;;;-0.16;100.00
21401;BME280;18038;50.166;18.908;2024-03-06T06:41:57;98286.88;;;-0.07;100.00
21401;BME280;18038;50.166;18.908;2024-03-06T06:45:05;98294.50;;;-0.04;100.00
21401;BME280;18038;50.166;18.908;2024-03-06T06:48:14;98292.44;;;0.12;100.00
21401;BME280;18038;50.166;18.908;2024-03-06T06:51:22;98290.25;;;0.30;100.00
21401;BME280;18038;50.166;18.908;2024-03-06T06:54:33;98292.56;;;0.34;100.00
21401;BME280;18038;50.166;18.908;2024-03-06T06:57:40;98293.84;;;0.29;100.00
21401;BME280;18038;50.166;18.908;2024-03-06T07:00:48;98297.53;;;0.26;100.00
21401;BME280;18038;50.166;18.908;2024-03-06T07:03:56;98288.94;;;0.60;100.00
21401;BME280;18038;50.166;18.908;2024-03-06T07:07:04;98286.84;;;0.76;100.00
21401;BME280;18038;50.166;18.908;2024-03-06T07:10:14;98294.75;;;0.87;100.00
21401;BME280;18038;50.166;18.908;2024-03-06T07:13:22;98294.34;;;0.81;98.98
21401;BME280;18038;50.166;18.908;2024-03-06T07:16:29;98304.97;;;0.44;99.79
21401;BME280;18038;50.166;18.908;2024-03-06T07:19:37;98295.84;;;0.49;100.00
21401;BME280;18038;50.166;18.908;2024-03-06T07:22:45;98294.00;;;0.74;100.00
21401;BME280;18038;50.166;18.908;2024-03-06T07:25:58;98299.84;;;0.42;100.00
21401;BME280;18038;50.166;18.908;2024-03-06T07:29:05;98293.81;;;0.53;100.00
21401;BME280;18038;50.166;18.908;2024-03-06T07:32:19;98308.81;;;0.51;100.00
21401;BME280;18038;50.166;18.908;2024-03-06T07:35:27;98304.31;;;0.64;100.00
21401;BME280;18038;50.166;18.908;2024-03-06T07:38:35;98310.97;;;1.04;100.00
21401;BME280;18038;50.166;18.908;2024-03-06T07:41:45;98302.97;;;0.94;100.00
21401;BME280;18038;50.166;18.908;2024-03-06T07:44:53;98308.34;;;1.15;99.56
21401;BME280;18038;50.166;18.908;2024-03-06T07:48:01;98303.25;;;1.36;99.53
21401;BME280;18038;50.166;18.908;2024-03-06T07:51:09;98313.06;;;1.45;97.98
21401;BME280;18038;50.166;18.908;2024-03-06T07:54:16;98315.66;;;1.56;97.48
21401;BME280;18038;50.166;18.908;2024-03-06T07:57:27;98324.84;;;1.62;96.92
21401;BME280;18038;50.166;18.908;2024-03-06T08:00:34;98313.63;;;1.71;96.26
21401;BME280;18038;50.166;18.908;2024-03-06T08:03:43;98321.50;;;1.60;94.78
21401;BME280;18038;50.166;18.908;2024-03-06T08:06:51;98334.50;;;1.28;96.09
21401;BME280;18038;50.166;18.908;2024-03-06T08:09:59;98329.63;;;1.46;97.62
21401;BME280;18038;50.166;18.908;2024-03-06T08:13:08;98331.28;;;1.80;97.08
21401;BME280;18038;50.166;18.908;2024-03-06T08:16:17;98331.66;;;1.53;96.06
21401;BME280;18038;50.166;18.908;2024-03-06T08:19:24;98329.03;;;1.64;96.60
21401;BME280;18038;50.166;18.908;2024-03-06T08:22:32;98331.38;;;2.01;96.21
21401;BME280;18038;50.166;18.908;2024-03-06T08:25:42;98334.97;;;2.00;95.31
21401;BME280;18038;50.166;18.908;2024-03-06T08:28:52;98334.50;;;1.95;95.40
21401;BME280;18038;50.166;18.908;2024-03-06T08:32:00;98322.66;;;1.89;95.61
21401;BME280;18038;50.166;18.908;2024-03-06T08:35:10;98325.91;;;1.71;94.43
21401;BME280;18038;50.166;18.908;2024-03-06T08:38:24;98328.25;;;2.19;96.04
21401;BME280;18038;50.166;18.908;2024-03-06T08:41:32;98325.88;;;2.69;93.20
21401;BME280;18038;50.166;18.908;2024-03-06T08:44:42;98324.34;;;2.87;92.22
21401;BME280;18038;50.166;18.908;2024-03-06T08:47:50;98328.03;;;2.96;91.28
21401;BME280;18038;50.166;18.908;2024-03-06T08:50:58;98332.38;;;2.65;91.44
21401;BME280;18038;50.166;18.908;2024-03-06T08:54:07;98345.91;;;2.81;90.98
21401;BME280;18038;50.166;18.908;2024-03-06T08:57:17;98343.22;;;3.13;89.66
21401;BME280;18038;50.166;18.908;2024-03-06T09:00:28;98344.59;;;3.08;88.47
21401;BME280;18038;50.166;18.908;2024-03-06T09:03:35;98342.03;;;3.79;87.02
21401;BME280;18038;50.166;18.908;2024-03-06T09:06:43;98340.75;;;4.14;85.65
21401;BME280;18038;50.166;18.908;2024-03-06T09:09:51;98343.81;;;4.19;84.64
21401;BME280;18038;50.166;18.908;2024-03-06T09:13:00;98351.59;;;4.30;82.86
21401;BME280;18038;50.166;18.908;2024-03-06T09:16:10;98339.28;;;4.50;82.76
21401;BME280;18038;50.166;18.908;2024-03-06T09:19:18;98345.38;;;4.70;80.32
21401;BME280;18038;50.166;18.908;2024-03-06T09:22:26;98338.22;;;4.91;78.18
21401;BME280;18038;50.166;18.908;2024-03-06T09:25:34;98343.25;;;5.79;75.47
21401;BME280;18038;50.166;18.908;2024-03-06T09:28:41;98333.53;;;6.25;72.89
21401;BME280;18038;50.166;18.908;2024-03-06T09:31:52;98338.97;;;6.23;71.95
21401;BME280;18038;50.166;18.908;2024-03-06T09:35:00;98334.72;;;5.57;74.05
21401;BME280;18038;50.166;18.908;2024-03-06T09:38:08;98332.94;;;6.13;73.39
21401;BME280;18038;50.166;18.908;2024-03-06T09:41:15;98338.75;;;5.89;72.04
21401;BME280;18038;50.166;18.908;2024-03-06T09:44:23;98331.75;;;5.98;71.50
21401;BME280;18038;50.166;18.908;2024-03-06T09:47:35;98335.06;;;6.99;68.88
21401;BME280;18038;50.166;18.908;2024-03-06T09:50:48;98327.03;;;7.27;67.88
21401;BME280;18038;50.166;18.908;2024-03-06T09:53:58;98337.44;;;6.66;67.52
21401;BME280;18038;50.166;18.908;2024-03-06T09:57:07;98337.28;;;6.86;68.75
21401;BME280;18038;50.166;18.908;2024-03-06T10:00:17;98341.13;;;6.38;69.63
21401;BME280;18038;50.166;18.908;2024-03-06T10:03:29;98349.88;;;6.38;68.77
21401;BME280;18038;50.166;18.908;2024-03-06T10:06:36;98347.84;;;5.39;71.75
21401;BME280;18038;50.166;18.908;2024-03-06T10:09:47;98343.44;;;5.21;71.97
21401;BME280;18038;50.166;18.908;2024-03-06T10:12:54;98345.09;;;5.12;74.23
21401;BME280;18038;50.166;18.908;2024-03-06T10:16:07;98347.34;;;5.16;72.68
21401;BME280;18038;50.166;18.908;2024-03-06T10:19:19;98337.06;;;4.65;74.06
21401;BME280;18038;50.166;18.908;2024-03-06T10:22:28;98342.34;;;4.65;74.80
21401;BME280;18038;50.166;18.908;2024-03-06T10:25:36;98325.66;;;4.64;75.12
21401;BME280;18038;50.166;18.908;2024-03-06T10:28:45;98351.06;;;4.56;75.78
21401;BME280;18038;50.166;18.908;2024-03-06T10:31:53;98339.28;;;4.99;75.68
21401;BME280;18038;50.166;18.908;2024-03-06T10:35:07;98339.16;;;4.90;75.67
21401;BME280;18038;50.166;18.908;2024-03-06T10:38:14;98341.78;;;4.71;75.28
21401;BME280;18038;50.166;18.908;2024-03-06T10:41:23;98340.78;;;4.43;76.24
21401;BME280;18038;50.166;18.908;2024-03-06T10:44:34;98349.44;;;4.74;75.25
21401;BME280;18038;50.166;18.908;2024-03-06T10:47:46;98344.41;;;4.61;75.01
21401;BME280;18038;50.166;18.908;2024-03-06T10:51:00;98339.28;;;4.60;75.30
21401;BME280;18038;50.166;18.908;2024-03-06T10:54:09;98340.25;;;4.68;75.45
21401;BME280;18038;50.166;18.908;2024-03-06T10:57:20;98343.72;;;4.40;75.77
21401;BME280;18038;50.166;18.908;2024-03-06T11:00:29;98340.25;;;4.59;76.34
21401;BME280;18038;50.166;18.908;2024-03-06T11:03:37;98337.56;;;4.20;76.98
21401;BME280;18038;50.166;18.908;2024-03-06T11:06:48;98339.94;;;3.82;78.82
21401;BME280;18038;50.166;18.908;2024-03-06T11:09:58;98336.06;;;4.17;78.63
21401;BME280;18038;50.166;18.908;2024-03-06T11:13:21;98333.91;;;3.92;79.28
21401;BME280;18038;50.166;18.908;2024-03-06T11:16:31;98332.19;;;3.81;79.80
21401;BME280;18038;50.166;18.908;2024-03-06T11:23:33;98326.66;;;3.84;80.76
21401;BME280;18038;50.166;18.908;2024-03-06T11:26:42;98324.41;;;3.79;82.36
21401;BME280;18038;50.166;18.908;2024-03-06T11:30:07;98326.16;;;4.00;81.79
21401;BME280;18038;50.166;18.908;2024-03-06T11:33:18;98318.91;;;3.92;82.30
21401;BME280;18038;50.166;18.908;2024-03-06T11:36:27;98320.56;;;3.83;82.25
21401;BME280;18038;50.166;18.908;2024-03-06T11:39:39;98323.47;;;3.80;82.69
21401;BME280;18038;50.166;18.908;2024-03-06T11:42:48;98320.09;;;3.69;83.90
21401;BME280;18038;50.166;18.908;2024-03-06T11:46:07;98317.59;;;3.67;84.76
21401;BME280;18038;50.166;18.908;2024-03-06T11:49:17;98323.16;;;3.74;84.62
21401;BME280;18038;50.166;18.908;2024-03-06T11:52:26;98316.94;;;3.84;84.88
21401;BME280;18038;50.166;18.908;2024-03-06T11:55:37;98315.28;;;3.83;85.17
21401;BME280;18038;50.166;18.908;2024-03-06T11:58:45;98309.19;;;3.83;85.27
21401;BME280;18038;50.166;18.908;2024-03-06T12:01:55;98309.50;;;3.59;86.59
21401;BME280;18038;50.166;18.908;2024-03-06T12:05:07;98303.72;;;3.65;87.33
21401;BME280;18038;50.166;18.908;2024-03-06T12:08:14;98306.09;;;3.68;87.01
21401;BME280;18038;50.166;18.908;2024-03-06T12:11:25;98307.19;;;3.65;87.12
21401;BME280;18038;50.166;18.908;2024-03-06T12:14:35;98303.13;;;3.61;88.76
21401;BME280;18038;50.166;18.908;2024-03-06T12:17:45;98294.28;;;3.62;90.29
21401;BME280;18038;50.166;18.908;2024-03-06T12:20:55;98298.56;;;3.54;91.11
21401;BME280;18038;50.166;18.908;2024-03-06T12:24:04;98299.06;;;3.48;91.81
21401;BME280;18038;50.166;18.908;2024-03-06T12:27:22;98296.31;;;3.49;92.71
21401;BME280;18038;50.166;18.908;2024-03-06T12:30:40;98304.03;;;3.41;93.14
21401;BME280;18038;50.166;18.908;2024-03-06T12:33:56;98299.44;;;3.43;93.59
21401;BME280;18038;50.166;18.908;2024-03-06T12:37:09;98291.34;;;3.56;93.79
21401;BME280;18038;50.166;18.908;2024-03-06T12:40:16;98297.75;;;3.63;93.91
21401;BME280;18038;50.166;18.908;2024-03-06T12:43:27;98297.47;;;3.66;93.67
21401;BME280;18038;50.166;18.908;2024-03-06T12:46:35;98301.59;;;3.59;93.29
21401;BME280;18038;50.166;18.908;2024-03-06T12:49:43;98299.94;;;3.58;93.48
21401;BME280;18038;50.166;18.908;2024-03-06T12:52:50;98298.44;;;3.65;94.35
21401;BME280;18038;50.166;18.908;2024-03-06T12:55:59;98301.03;;;3.55;94.12
21401;BME280;18038;50.166;18.908;2024-03-06T12:59:09;98302.28;;;3.51;95.52
21401;BME280;18038;50.166;18.908;2024-03-06T13:02:17;98306.53;;;3.42;95.17
21401;BME280;18038;50.166;18.908;2024-03-06T13:05:24;98301.47;;;3.30;95.59
21401;BME280;18038;50.166;18.908;2024-03-06T13:08:32;98297.94;;;3.40;96.29
21401;BME280;18038;50.166;18.908;2024-03-06T13:11:40;98308.22;;;3.43;96.53
21401;BME280;18038;50.166;18.908;2024-03-06T13:14:52;98306.25;;;3.46;96.73
21401;BME280;18038;50.166;18.908;2024-03-06T13:18:00;98303.34;;;3.39;97.33
21401;BME280;18038;50.166;18.908;2024-03-06T13:21:09;98304.59;;;3.45;96.76
21401;BME280;18038;50.166;18.908;2024-03-06T13:24:17;98300.91;;;3.26;96.92
21401;BME280;18038;50.166;18.908;2024-03-06T13:27:25;98299.47;;;3.12;97.28
21401;BME280;18038;50.166;18.908;2024-03-06T13:30:34;98305.25;;;3.06;97.94
21401;BME280;18038;50.166;18.908;2024-03-06T13:33:43;98300.44;;;3.11;98.28
21401;BME280;18038;50.166;18.908;2024-03-06T13:36:51;98297.13;;;2.98;99.04
21401;BME280;18038;50.166;18.908;2024-03-06T13:39:59;98295.63;;;2.95;99.49
21401;BME280;18038;50.166;18.908;2024-03-06T13:43:07;98294.78;;;2.95;99.57
21401;BME280;18038;50.166;18.908;2024-03-06T13:46:17;98301.28;;;2.91;99.92
21401;BME280;18038;50.166;18.908;2024-03-06T13:49:36;98291.38;;;2.83;100.00
21401;BME280;18038;50.166;18.908;2024-03-06T13:52:45;98304.81;;;2.80;100.00
21401;BME280;18038;50.166;18.908;2024-03-06T13:55:53;98299.53;;;3.01;100.00
21401;BME280;18038;50.166;18.908;2024-03-06T13:59:01;98303.06;;;3.11;100.00
21401;BME280;18038;50.166;18.908;2024-03-06T14:02:11;98303.94;;;3.01;100.00
21401;BME280;18038;50.166;18.908;2024-03-06T14:05:19;98305.38;;;3.05;99.81
21401;BME280;18038;50.166;18.908;2024-03-06T14:08:29;98302.09;;;2.91;99.95
21401;BME280;18038;50.166;18.908;2024-03-06T14:11:37;98298.94;;;2.97;100.00
21401;BME280;18038;50.166;18.908;2024-03-06T14:14:44;98305.19;;;2.96;100.00
21401;BME280;18038;50.166;18.908;2024-03-06T14:17:55;98306.84;;;2.97;100.00
21401;BME280;18038;50.166;18.908;2024-03-06T14:21:03;98299.34;;;2.72;100.00
21401;BME280;18038;50.166;18.908;2024-03-06T14:24:11;98305.75;;;2.79;100.00
21401;BME280;18038;50.166;18.908;2024-03-06T14:27:19;98304.47;;;2.73;100.00
21401;BME280;18038;50.166;18.908;2024-03-06T14:30:27;98307.63;;;2.88;100.00
21401;BME280;18038;50.166;18.908;2024-03-06T14:33:37;98306.72;;;2.78;100.00
21401;BME280;18038;50.166;18.908;2024-03-06T14:36:47;98306.91;;;2.86;100.00
21401;BME280;18038;50.166;18.908;2024-03-06T14:39:54;98310.00;;;2.91;100.00
21401;BME280;18038;50.166;18.908;2024-03-06T14:43:05;98315.97;;;2.93;100.00
21401;BME280;18038;50.166;18.908;2024-03-06T14:46:14;98317.38;;;2.97;100.00
21401;BME280;18038;50.166;18.908;2024-03-06T14:49:25;98311.19;;;2.87;100.00
21401;BME280;18038;50.166;18.908;2024-03-06T14:52:33;98309.91;;;2.82;100.00
21401;BME280;18038;50.166;18.908;2024-03-06T14:55:42;98310.09;;;2.90;100.00
21401;BME280;18038;50.166;18.908;2024-03-06T14:58:49;98304.47;;;2.94;100.00
21401;BME280;18038;50.166;18.908;2024-03-06T15:01:57;98316.22;;;2.90;100.00
21401;BME280;18038;50.166;18.908;2024-03-06T15:05:08;98308.81;;;2.63;100.00
21401;BME280;18038;50.166;18.908;2024-03-06T15:08:18;98311.97;;;2.78;100.00
21401;BME280;18038;50.166;18.908;2024-03-06T15:11:25;98312.56;;;2.82;100.00
21401;BME280;18038;50.166;18.908;2024-03-06T15:14:36;98305.72;;;2.90;100.00
21401;BME280;18038;50.166;18.908;2024-03-06T15:17:50;98308.44;;;2.89;100.00
21401;BME280;18038;50.166;18.908;2024-03-06T15:21:01;98305.47;;;2.82;100.00
21401;BME280;18038;50.166;18.908;2024-03-06T15:24:08;98311.72;;;2.81;100.00
21401;BME280;18038;50.166;18.908;2024-03-06T15:27:16;98313.16;;;2.85;100.00
21401;BME280;18038;50.166;18.908;2024-03-06T15:30:24;98313.16;;;2.85;100.00
21401;BME280;18038;50.166;18.908;2024-03-06T15:33:33;98306.47;;;2.81;100.00
21401;BME280;18038;50.166;18.908;2024-03-06T15:36:43;98313.59;;;2.90;100.00
21401;BME280;18038;50.166;18.908;2024-03-06T15:39:51;98312.63;;;2.91;100.00
21401;BME280;18038;50.166;18.908;2024-03-06T15:42:58;98311.66;;;2.92;100.00
21401;BME280;18038;50.166;18.908;2024-03-06T15:46:08;98307.28;;;2.82;100.00
21401;BME280;18038;50.166;18.908;2024-03-06T15:49:20;98308.19;;;2.92;100.00
21401;BME280;18038;50.166;18.908;2024-03-06T15:52:32;98307.34;;;2.91;100.00
21401;BME280;18038;50.166;18.908;2024-03-06T15:55:40;98310.06;;;2.80;100.00
21401;BME280;18038;50.166;18.908;2024-03-06T15:58:49;98303.63;;;2.73;100.00
21401;BME280;18038;50.166;18.908;2024-03-06T16:01:56;98305.75;;;2.79;100.00
21401;BME280;18038;50.166;18.908;2024-03-06T16:05:05;98305.09;;;2.87;100.00
21401;BME280;18038;50.166;18.908;2024-03-06T16:08:16;98314.06;;;2.95;100.00
21401;BME280;18038;50.166;18.908;2024-03-06T16:11:25;98316.91;;;2.92;100.00
21401;BME280;18038;50.166;18.908;2024-03-06T16:14:33;98311.84;;;3.01;100.00
21401;BME280;18038;50.166;18.908;2024-03-06T16:17:41;98323.41;;;3.09;100.00
21401;BME280;18038;50.166;18.908;2024-03-06T16:20:49;98317.50;;;3.17;100.00
21401;BME280;18038;50.166;18.908;2024-03-06T16:24:00;98321.66;;;3.19;100.00
21401;BME280;18038;50.166;18.908;2024-03-06T16:27:11;98316.34;;;3.10;100.00
21401;BME280;18038;50.166;18.908;2024-03-06T16:30:20;98330.47;;;3.09;100.00
21401;BME280;18038;50.166;18.908;2024-03-06T16:33:27;98324.50;;;3.07;100.00
21401;BME280;18038;50.166;18.908;2024-03-06T16:36:37;98326.69;;;3.02;100.00
21401;BME280;18038;50.166;18.908;2024-03-06T16:39:47;98327.88;;;2.97;100.00